Latest Weather Observations for Strathalbyn

IDS60901

Issued at 8:11 am CDT Saturday 16 October 2021 (issued every 10 minutes, with the page automatically refreshed every 10 minutes)

About weather observations | Map of Adelaide area stations | Latest observations for Adelaide area | Other Formats
Station Details ID: 024580 Name: STRATHALBYN RACECOURSE Lat: -35.28 Lon: 138.89 Height: 58.0 m
Data from the previous 72 hours. | See also: Recent months at Strathalbyn
Date/Time
CDT
Temp
°C
App
Temp
°C
Dew
Point
°C
Rel
Hum
%
Delta-T
°C
Wind Press
QNH
hPa
Press
MSL
hPa
Rain since
9am
mm
Dir  Spd
km/h
Gust
km/h
Spd
kts
Gust
kts
16/08:00am 11.7 8.0 6.4 70 2.5 W 15 20 8 11 1016.8 1016.8 1.0
16/07:30am 11.3 8.0 6.4 72 2.3 WSW 13 17 7 9 1016.4 1016.4 1.0
16/07:00am 11.2 8.2 5.9 70 2.5 WSW 11 15 6 8 1016.0 1016.0 1.0
16/06:30am 11.0 8.0 6.0 71 2.3 W 11 15 6 8 1015.7 1015.7 1.0
16/06:00am 11.1 8.1 5.8 70 2.5 W 11 15 6 8 1015.4 1015.4 1.0
16/05:30am 11.4 7.1 5.3 66 2.8 WSW 17 24 9 13 1015.1 1015.1 1.0
16/05:00am 11.3 7.9 6.0 70 2.5 W 13 19 7 10 1015.0 1015.0 1.0
16/04:30am 11.4 8.3 5.7 68 2.6 WSW 11 15 6 8 1014.9 1014.9 1.0
16/04:00am 11.4 8.8 6.1 70 2.5 WSW 9 17 5 9 1014.9 1014.9 1.0
16/03:30am 11.6 8.3 6.5 71 2.4 WSW 13 20 7 11 1014.9 1014.9 1.0
16/03:00am 11.4 8.5 6.7 73 2.2 WSW 11 15 6 8 1015.0 1015.0 1.0
16/02:30am 11.6 8.0 6.7 72 2.3 WSW 15 24 8 13 1015.0 1015.0 1.0
16/02:00am 11.8 8.6 6.7 71 2.4 WSW 13 22 7 12 1015.2 1015.2 1.0
16/01:30am 11.9 8.6 6.6 70 2.5 WSW 13 20 7 11 1015.2 1015.2 1.0
16/01:00am 12.0 8.4 6.9 71 2.4 WSW 15 20 8 11 1015.1 1015.1 1.0
16/12:30am 12.0 8.1 7.1 72 2.4 WSW 17 30 9 16 1015.4 1015.4 1.0
16/12:00am 11.9 8.4 7.4 74 2.2 WSW 15 20 8 11 1015.3 1015.3 1.0
 
Date/Time
CDT
Temp
°C
App
Temp
°C
Dew
Point
°C
Rel
Hum
%
Delta-T
°C
Wind Press
QNH
hPa
Press
MSL
hPa
Rain since
9am
mm
Dir  Spd
km/h
Gust
km/h
Spd
kts
Gust
kts
15/11:30pm 12.0 7.8 7.3 73 2.3 WSW 19 32 10 17 1015.3 1015.3 1.0
15/11:00pm 11.8 8.8 7.5 75 2.1 SW 13 20 7 11 1015.4 1015.4 1.0
15/10:30pm 12.2 7.9 7.9 75 2.1 SW 20 24 11 13 1015.5 1015.5 1.0
15/10:00pm 12.3 9.6 8.8 79 1.8 SW 13 20 7 11 1015.3 1015.3 1.0
15/09:30pm 12.3 8.8 8.6 78 1.8 WSW 17 28 9 15 1015.1 1015.1 1.0
15/09:00pm 12.3 9.5 8.6 78 1.8 WSW 13 20 7 11 1015.0 1015.0 1.0
15/08:30pm 12.6 8.4 8.1 74 2.2 WSW 20 28 11 15 1014.5 1014.5 1.0
15/08:00pm 12.3 9.8 8.0 75 2.1 WSW 11 15 6 8 1014.2 1014.2 1.0
15/07:30pm 12.7 8.6 7.8 72 2.4 SW 19 30 10 16 1013.9 1013.9 1.0
15/07:00pm 13.2 9.6 8.3 72 2.4 SW 17 22 9 12 1013.4 1013.4 1.0
15/06:30pm 13.3 7.4 7.7 69 2.8 SW 28 37 15 20 1013.2 1013.2 1.0
15/06:00pm 13.7 7.9 8.1 69 2.8 SSW 28 41 15 22 1012.9 1012.9 1.0
15/05:30pm 13.4 8.3 9.1 75 2.2 SW 26 37 14 20 1012.5 1012.5 1.0
15/05:00pm 14.4 8.6 8.1 66 3.2 SSW 28 37 15 20 1012.1 1012.1 1.0
15/04:30pm 14.5 8.8 8.2 66 3.2 SW 28 41 15 22 1011.9 1011.9 1.0
15/04:00pm 14.7 8.6 8.2 65 3.3 SSW 30 41 16 22 1011.9 1011.9 1.0
15/03:30pm 14.9 8.4 9.1 68 3.0 SSW 33 48 18 26 1011.8 1011.8 1.0
15/03:00pm 13.9 8.4 9.1 73 2.4 SW 28 41 15 22 1011.8 1011.8 1.0
15/02:30pm 13.2 7.6 10.2 82 1.6 SW 30 50 16 27 1011.8 1011.8 1.0
15/02:27pm 13.3 7.9 9.5 78 1.9 SW 28 50 15 27 1011.8 1011.8 1.0
15/02:00pm 13.1 7.2 10.5 84 1.4 SSW 32 43 17 23 1011.8 1011.8 0.4
15/01:46pm 14.7 8.4 9.1 69 2.9 SSW 32 50 17 27 1011.5 1011.4 0.0
15/01:30pm 15.9 9.1 7.1 56 4.4 SW 32 41 17 22 1011.5 1011.4 0.0
15/01:00pm 16.1 10.1 8.6 61 3.8 SSW 30 41 16 22 1011.4 1011.3 0.0
15/12:30pm 15.1 8.7 6.9 58 4.0 SSW 30 41 16 22 1011.5 1011.4 0.0
15/12:00pm 14.3 9.0 8.3 67 3.0 SW 26 35 14 19 1011.6 1011.5 0.0
15/11:30am 14.0 8.3 8.4 69 2.8 SSW 28 41 15 22 1011.7 1011.6 0.0
15/11:00am 14.8 8.6 9.4 70 2.8 S 32 39 17 21 1011.7 1011.6 0.0
15/10:30am 13.7 8.5 8.7 72 2.5 SSW 26 35 14 19 1011.7 1011.6 0.0
15/10:00am 13.5 8.7 8.8 73 2.4 S 24 32 13 17 1011.4 1011.3 0.0
15/09:30am 13.8 10.1 9.5 75 2.2 SSW 19 28 10 15 1010.9 1010.8 0.0
15/09:00am 12.3 9.5 8.6 78 1.8 SW 13 19 7 10 1010.6 1010.5 12.2
15/08:30am 10.9 9.4 9.2 89 0.9 WSW 7 9 4 5 1010.1 1010.0 12.2
15/08:00am 9.8 7.9 9.2 96 0.3 WSW 9 13 5 7 1009.7 1009.6 12.2
15/07:30am 8.9 6.9 8.5 97 0.2 WSW 9 15 5 8 1009.0 1008.9 12.2
15/07:00am 7.9 5.6 7.5 97 0.2 WSW 9 13 5 7 1008.2 1008.1 12.2
15/06:30am 6.5 4.8 5.9 96 0.3 SSW 4 9 2 5 1007.1 1007.0 12.2
15/06:00am 6.5 3.5 5.9 96 0.3 SSW 11 13 6 7 1006.5 1006.4 12.2
15/05:30am 7.5 5.6 6.9 96 0.3 ESE 6 7 3 4 1005.3 1005.2 12.2
15/05:00am 8.0 5.3 7.4 96 0.3 E 11 15 6 8 1004.3 1004.2 12.2
15/04:30am 8.3 7.0 7.5 95 0.4 ESE 4 7 2 4 1003.6 1003.5 12.2
15/04:00am 9.0 7.4 8.2 95 0.4 ENE 6 7 3 4 1003.2 1003.1 12.2
15/03:30am 9.4 7.9 8.6 95 0.4 N 6 7 3 4 1003.1 1003.0 12.2
15/03:00am 9.4 7.9 8.6 95 0.4 NE 6 9 3 5 1003.1 1003.0 12.0
15/02:30am 9.5 7.9 8.7 95 0.4 NNE 7 9 4 5 1003.1 1003.0 12.0
15/02:00am 9.5 6.7 8.7 95 0.4 NNE 13 19 7 10 1003.1 1003.0 12.0
15/01:30am 9.7 5.7 8.9 95 0.4 NNE 20 28 11 15 1003.3 1003.2 11.8
15/01:00am 9.7 6.2 8.9 95 0.4 NE 17 24 9 13 1003.4 1003.3 11.2
15/12:30am 10.0 7.2 8.4 90 0.8 ENE 13 17 7 9 1003.8 1003.7 9.2
15/12:00am 10.2 6.9 8.1 87 1.0 NE 15 19 8 10 1003.8 1003.7 4.4
 
Date/Time
CDT
Temp
°C
App
Temp
°C
Dew
Point
°C
Rel
Hum
%
Delta-T
°C
Wind Press
QNH
hPa
Press
MSL
hPa
Rain since
9am
mm
Dir  Spd
km/h
Gust
km/h
Spd
kts
Gust
kts
14/11:30pm 10.4 9.9 7.8 84 1.3 CALM 0 7 0 4 1004.8 1004.7 3.6
14/11:00pm 10.4 8.5 7.6 83 1.3 NW 7 11 4 6 1004.9 1004.8 3.4
14/10:30pm 11.1 8.0 7.2 77 1.9 W 13 20 7 11 1005.5 1005.4 2.6
14/10:00pm 11.2 8.9 7.5 78 1.8 WNW 9 11 5 6 1005.6 1005.5 2.4
14/09:30pm 10.9 8.3 7.8 81 1.5 W 11 13 6 7 1005.6 1005.5 2.4
14/09:00pm 11.1 9.5 8.1 82 1.5 SW 6 9 3 5 1005.6 1005.5 2.4
14/08:30pm 11.4 9.3 8.1 80 1.6 SW 9 28 5 15 1005.6 1005.5 2.4
14/08:00pm 11.5 8.9 7.6 77 1.9 SW 11 13 6 7 1005.3 1005.2 2.4
14/07:30pm 11.9 8.1 7.4 74 2.2 SW 17 20 9 11 1005.0 1004.9 2.4
14/07:00pm 12.5 8.6 7.0 69 2.7 SW 17 26 9 14 1004.5 1004.4 2.4
14/06:30pm 13.3 8.1 7.1 66 3.0 SSW 24 32 13 17 1004.1 1004.0 2.4
14/06:00pm 13.8 8.4 6.4 61 3.6 SSW 24 35 13 19 1003.8 1003.7 2.4
14/05:30pm 14.4 9.4 6.3 58 3.9 SSW 22 30 12 16 1003.4 1003.3 2.4
14/05:00pm 15.0 10.6 7.5 61 3.7 SSW 20 30 11 16 1003.0 1002.9 2.4
14/04:30pm 15.0 11.0 8.3 64 3.4 SW 19 28 10 15 1002.7 1002.6 2.4
14/04:00pm 14.3 10.6 10.1 76 2.2 SW 20 28 11 15 1002.7 1002.6 2.4
14/03:30pm 11.6 9.0 9.3 86 1.2 SW 13 19 7 10 1003.2 1003.1 2.4
14/03:00pm 11.6 7.6 9.2 85 1.2 SW 20 28 11 15 1003.2 1003.1 1.2
14/02:30pm 13.9 9.8 7.7 66 3.1 SSW 19 28 10 15 1002.9 1002.8 0.4
14/02:00pm 15.6 12.5 5.5 51 4.8 E 11 15 6 8 1002.7 1002.6 0.4
14/01:30pm 15.3 11.6 6.3 55 4.4 NNE 15 22 8 12 1002.8 1002.7 0.4
14/01:00pm 15.4 11.0 4.8 49 5.0 NE 17 26 9 14 1002.7 1002.6 0.2
14/12:30pm 15.6 12.1 7.1 57 4.2 NE 15 26 8 14 1002.7 1002.6 0.2
14/12:00pm 15.1 10.0 6.1 55 4.4 NE 22 30 12 16 1002.9 1002.8 0.2
14/11:30am 14.7 11.3 7.7 63 3.5 NNE 15 30 8 16 1002.9 1002.8 0.2
14/11:00am 13.0 10.0 7.7 70 2.6 NNE 13 24 7 13 1003.1 1003.0 0.2
14/10:30am 11.7 8.8 8.2 79 1.7 NNE 13 19 7 10 1003.2 1003.1 0.2
14/10:00am 11.0 8.1 8.1 82 1.4 NNE 13 17 7 9 1003.4 1003.3 0.2
14/09:30am 10.4 8.3 8.2 86 1.1 NE 9 11 5 6 1003.3 1003.2 0.0
14/09:00am 10.3 8.5 8.1 86 1.1 ENE 7 9 4 5 1003.1 1003.0 1.8
14/08:30am 9.8 7.2 7.7 87 1.0 N 11 15 6 8 1002.9 1002.8 1.6
14/08:00am 9.1 6.3 6.9 86 1.0 N 11 15 6 8 1003.0 1002.9 1.6
14/07:30am 8.9 6.8 6.5 85 1.1 NNE 7 9 4 5 1002.8 1002.7 0.8
14/07:00am 8.7 6.1 6.2 84 1.1 NNE 9 11 5 6 1002.6 1002.5 0.8
14/06:30am 8.6 5.9 5.5 81 1.4 NNE 9 11 5 6 1002.3 1002.2 0.6
14/06:00am 8.9 6.6 5.6 80 1.5 NNE 7 11 4 6 1002.1 1002.0 0.6
14/05:30am 8.8 5.7 5.5 80 1.5 NNE 11 13 6 7 1001.8 1001.8 0.6
14/05:00am 8.9 6.7 5.5 79 1.5 NE 6 9 3 5 1001.8 1001.8 0.6
14/04:30am 9.0 6.3 5.7 80 1.5 NNE 9 11 5 6 1002.1 1002.0 0.4
14/04:00am 8.6 6.3 5.7 82 1.3 NE 7 13 4 7 1002.5 1002.4 0.4
14/03:30am 8.6 6.3 5.9 83 1.2 N 7 9 4 5 1002.5 1002.4 0.4
14/03:00am 8.7 6.1 6.0 83 1.2 N 9 13 5 7 1002.8 1002.7 0.4
14/02:30am 8.0 5.3 5.6 85 1.1 N 9 11 5 6 1003.3 1003.2 0.4
14/02:00am 7.4 5.2 5.2 86 1.0 E 6 7 3 4 1003.8 1003.7 0.4
14/01:30am 7.1 4.6 4.8 85 1.0 N 7 7 4 4 1004.1 1004.0 0.4
14/01:00am 6.7 4.1 4.4 85 1.0 N 7 9 4 5 1004.4 1004.3 0.4
14/12:30am 6.7 4.1 4.0 83 1.2 N 7 9 4 5 1004.6 1004.5 0.4
14/12:00am 7.0 4.4 4.3 83 1.2 NE 7 7 4 4 1004.8 1004.7 0.4
 
Date/Time
CDT
Temp
°C
App
Temp
°C
Dew
Point
°C
Rel
Hum
%
Delta-T
°C
Wind Press
QNH
hPa
Press
MSL
hPa
Rain since
9am
mm
Dir  Spd
km/h
Gust
km/h
Spd
kts
Gust
kts
13/11:30pm 6.4 3.3 3.4 81 1.3 N 9 11 5 6 1005.1 1005.0 0.4
13/11:00pm 6.7 4.8 3.1 78 1.5 NNW 2 6 1 3 1005.4 1005.3 0.4
13/10:30pm 8.1 5.2 4.5 78 1.6 NNW 9 11 5 6 1005.6 1005.5 0.4
13/10:00pm 9.0 6.6 4.4 73 2.0 NNW 6 9 3 5 1005.8 1005.7 0.4
13/09:30pm 9.7 7.1 4.3 69 2.4 NNW 7 11 4 6 1005.9 1005.8 0.4
13/09:00pm 10.1 7.7 4.3 67 2.6 N 6 7 3 4 1005.9 1005.8 0.4
13/08:30pm 9.6 7.1 3.8 67 2.6 NNE 6 9 3 5 1005.9 1005.8 0.4
13/08:00pm 11.2 8.7 4.0 61 3.2 S 6 9 3 5 1005.7 1005.6 0.4
13/07:30pm 11.6 8.5 3.6 58 3.6 W 9 17 5 9 1005.6 1005.5 0.4
13/07:00pm 12.3 8.2 4.5 59 3.6 NW 15 24 8 13 1005.4 1005.3 0.4
13/06:30pm 13.7 8.3 4.3 53 4.3 NW 22 30 12 16 1005.3 1005.2 0.4
13/06:00pm 14.3 9.2 4.0 50 4.7 NW 20 30 11 16 1005.1 1005.0 0.4
13/05:30pm 13.7 8.8 4.3 53 4.3 WNW 19 28 10 15 1004.8 1004.7 0.4
13/05:00pm 14.1 9.7 4.7 53 4.4 WNW 17 28 9 15 1004.7 1004.6 0.4
13/04:30pm 14.0 9.8 5.9 58 3.9 WNW 17 28 9 15 1004.9 1004.8 0.4
13/04:00pm 14.5 9.7 4.8 52 4.5 NW 19 28 10 15 1004.7 1004.6 0.4
13/03:30pm 15.4 10.7 5.9 53 4.6 W 20 28 11 15 1004.6 1004.5 0.4
13/03:00pm 14.5 8.8 4.8 52 4.6 WNW 24 35 13 19 1004.9 1004.8 0.4
13/02:30pm 15.2 9.7 5.7 53 4.6 W 24 37 13 20 1005.0 1004.9 0.4
13/02:00pm 13.3 8.9 6.6 64 3.2 WSW 19 30 10 16 1005.2 1005.1 0.4
13/01:30pm 13.1 6.3 6.9 66 3.0 WNW 32 44 17 24 1005.4 1005.3 0.4
13/01:00pm 15.0 8.4 4.4 49 4.9 NW 28 48 15 26 1005.1 1005.0 0.4
13/12:50pm 14.2 7.9 5.8 57 4.0 NW 28 46 15 25 1005.3 1005.2 0.4
13/12:30pm 12.8 8.6 7.3 69 2.7 NW 19 26 10 14 1005.5 1005.4 0.4
13/12:04pm 14.4 8.0 5.2 54 4.3 WNW 28 46 15 25 1005.5 1005.4 0.2
13/12:00pm 14.4 9.0 4.4 51 4.6 NW 22 41 12 22 1005.4 1005.3 0.2
13/11:30am 13.6 7.9 6.5 62 3.4 NW 26 37 14 20 1005.8 1005.7 0.2
13/11:00am 13.9 7.5 5.3 56 4.0 NW 28 41 15 22 1005.8 1005.7 0.2
13/10:30am 13.3 7.8 5.9 61 3.5 WNW 24 35 13 19 1005.6 1005.5 0.2
13/10:00am 13.0 8.8 8.1 72 2.4 NW 20 32 11 17 1005.7 1005.6 0.2
13/09:30am 11.8 7.8 8.1 78 1.8 NW 19 28 10 15 1005.9 1005.8 0.2
13/09:00am 12.9 8.9 8.2 73 2.3 NW 19 26 10 14 1005.6 1005.5 0.2
13/08:30am 11.5 6.7 7.2 75 2.1 NW 22 30 12 16 1005.5 1005.4 0.2

Latest Capital City Observations: Canberra | Sydney | Melbourne | Brisbane | Adelaide | Perth | Hobart | Darwin

Other formats

Comma delimited format used in spreadsheet applications
http://www.bom.gov.au/fwo/IDS60901/IDS60901.94814.axf

JavaScript Object Notation format (JSON) in row-major order
http://www.bom.gov.au/fwo/IDS60901/IDS60901.94814.json

Data quality

Most of these data are generated automatically and are frequently updated. Quality checks on data are not normally performed. It is possible for incorrect values to appear. Refer to information at About Latest Weather Observations and please check the disclaimer before using these data.